createdAt,value
2023-02-22T00:00:26.010Z,96821.44
2023-02-22T00:02:55.794Z,96826.63
2023-02-22T00:05:22.450Z,96829.09
2023-02-22T00:07:49.086Z,96821.44
2023-02-22T00:10:16.370Z,96824.75
2023-02-22T00:12:43.019Z,96828.22
2023-02-22T00:15:10.036Z,96827.41
2023-02-22T00:17:36.726Z,96829.06
2023-02-22T00:20:03.632Z,96825.41
2023-02-22T00:22:30.287Z,96820.53
2023-02-22T00:24:57.652Z,96809.88
2023-02-22T00:27:24.310Z,96813.06
2023-02-22T00:29:50.952Z,96820.03
2023-02-22T00:32:17.630Z,96819.00
2023-02-22T00:34:44.308Z,96813.84
2023-02-22T00:37:11.147Z,96812.19
2023-02-22T00:39:37.790Z,96813.03
2023-02-22T00:42:04.441Z,96808.31
2023-02-22T00:44:31.077Z,96809.66
2023-02-22T00:46:57.731Z,96810.84
2023-02-22T00:49:24.353Z,96809.16
2023-02-22T00:51:51.001Z,96804.00
2023-02-22T00:54:17.648Z,96812.50
2023-02-22T00:56:44.287Z,96815.31
2023-02-22T00:59:10.922Z,96809.31
2023-02-22T01:01:37.679Z,96815.66
2023-02-22T01:04:04.458Z,96812.31
2023-02-22T01:06:31.131Z,96816.97
2023-02-22T01:08:57.778Z,96818.28
2023-02-22T01:11:24.408Z,96818.28
2023-02-22T01:13:51.054Z,96812.81
2023-02-22T01:16:17.747Z,96805.66
2023-02-22T01:18:44.401Z,96810.00
2023-02-22T01:21:11.047Z,96809.75
2023-02-22T01:23:37.692Z,96812.41
2023-02-22T01:26:04.781Z,96812.03
2023-02-22T01:28:34.605Z,96805.66
2023-02-22T01:31:01.326Z,96813.41
2023-02-22T01:33:28.081Z,96812.44
2023-02-22T01:35:54.713Z,96813.47
2023-02-22T01:38:21.359Z,96808.50
2023-02-22T01:40:49.851Z,96800.72
2023-02-22T01:43:20.865Z,96803.09
2023-02-22T01:46:06.822Z,96808.59
2023-02-22T01:48:55.306Z,96803.13
2023-02-22T01:51:42.085Z,96796.97
2023-02-22T01:54:22.287Z,96787.69
2023-02-22T01:56:52.359Z,96787.41
2023-02-22T01:59:19.030Z,96777.75
2023-02-22T02:01:45.678Z,96786.25
2023-02-22T02:04:16.243Z,96781.75
2023-02-22T02:06:42.948Z,96774.97
2023-02-22T02:09:56.903Z,96786.59
2023-02-22T02:12:23.776Z,96784.91
2023-02-22T02:14:50.451Z,96783.25
2023-02-22T02:17:18.826Z,96784.63
2023-02-22T02:20:06.283Z,96785.41
2023-02-22T02:22:44.606Z,96788.16
2023-02-22T02:25:54.847Z,96786.41
2023-02-22T02:28:32.878Z,96783.91
2023-02-22T02:31:34.844Z,96780.72
2023-02-22T02:34:37.381Z,96781.53
2023-02-22T02:37:11.879Z,96793.50
2023-02-22T02:39:43.606Z,96786.75
2023-02-22T02:42:12.721Z,96780.06
2023-02-22T02:44:53.955Z,96785.84
2023-02-22T02:47:26.395Z,96782.81
2023-02-22T02:50:01.060Z,96776.16
2023-02-22T02:52:27.846Z,96779.31
2023-02-22T02:54:54.509Z,96776.81
2023-02-22T02:57:21.224Z,96780.88
2023-02-22T02:59:48.049Z,96775.84
2023-02-22T03:02:17.495Z,96782.53
2023-02-22T03:04:50.106Z,96783.19
2023-02-22T03:07:42.491Z,96783.53
2023-02-22T03:10:21.315Z,96779.38
2023-02-22T03:12:57.374Z,96783.56
2023-02-22T03:15:32.916Z,96781.16
2023-02-22T03:18:38.857Z,96776.81
2023-02-22T03:21:15.393Z,96785.13
2023-02-22T03:24:07.032Z,96775.66
2023-02-22T03:26:42.562Z,96777.09
2023-02-22T03:29:10.049Z,96777.06
2023-02-22T03:31:39.902Z,96778.56
2023-02-22T03:34:17.412Z,96773.09
2023-02-22T03:36:54.934Z,96776.28
2023-02-22T03:39:21.560Z,96777.34
2023-02-22T03:41:48.969Z,96781.44
2023-02-22T03:44:17.296Z,96771.69
2023-02-22T03:46:43.950Z,96776.19
2023-02-22T03:49:14.132Z,96779.31
2023-02-22T03:51:40.888Z,96776.28
2023-02-22T03:54:08.216Z,96783.97
2023-02-22T03:56:40.809Z,96778.78
2023-02-22T03:59:08.232Z,96782.72
2023-02-22T04:01:35.129Z,96779.75
2023-02-22T04:04:01.760Z,96774.91
2023-02-22T04:06:28.496Z,96769.44
2023-02-22T04:08:55.181Z,96775.44
2023-02-22T04:11:21.872Z,96776.44
2023-02-22T04:13:48.505Z,96759.56
2023-02-22T04:16:15.237Z,96772.50
2023-02-22T04:18:41.921Z,96771.28
2023-02-22T04:21:08.567Z,96773.41
2023-02-22T04:23:35.227Z,96785.03
2023-02-22T04:26:01.889Z,96782.75
2023-02-22T04:28:28.561Z,96784.88
2023-02-22T04:30:55.219Z,96786.69
2023-02-22T04:33:21.892Z,96793.44
2023-02-22T04:35:50.322Z,96793.00
2023-02-22T04:38:17.930Z,96784.13
2023-02-22T04:40:45.522Z,96786.84
2023-02-22T04:43:12.204Z,96783.34
2023-02-22T04:45:38.840Z,96793.88
2023-02-22T04:48:05.504Z,96787.72
2023-02-22T04:50:32.189Z,96785.97
2023-02-22T04:52:58.856Z,96787.50
2023-02-22T04:55:25.519Z,96786.88
2023-02-22T04:57:52.167Z,96790.41
2023-02-22T05:00:19.168Z,96799.28
2023-02-22T05:02:45.887Z,96793.59
2023-02-22T05:05:14.481Z,96792.78
2023-02-22T05:07:41.155Z,96782.13
2023-02-22T05:10:08.218Z,96787.31
2023-02-22T05:12:35.690Z,96789.97
2023-02-22T05:15:03.195Z,96796.41
2023-02-22T05:17:29.878Z,96794.91
2023-02-22T05:19:56.646Z,96779.47
2023-02-22T05:22:23.325Z,96783.34
2023-02-22T05:24:50.104Z,96786.16
2023-02-22T05:27:16.755Z,96780.69
2023-02-22T05:29:43.393Z,96788.88
2023-02-22T05:32:10.080Z,96778.81
2023-02-22T05:34:36.738Z,96773.50
2023-02-22T05:37:03.406Z,96773.03
2023-02-22T05:39:30.506Z,96777.44
2023-02-22T05:41:57.360Z,96766.94
2023-02-22T05:44:24.028Z,96768.41
2023-02-22T05:46:50.800Z,96772.50
2023-02-22T05:49:17.465Z,96766.81
2023-02-22T05:51:44.135Z,96776.44
2023-02-22T05:54:10.798Z,96772.28
2023-02-22T05:56:37.435Z,96779.94
2023-02-22T05:59:04.078Z,96779.56
2023-02-22T06:01:30.731Z,96776.75
2023-02-22T06:03:57.831Z,96778.72
2023-02-22T06:06:24.465Z,96770.75
2023-02-22T06:08:51.140Z,96771.53
2023-02-22T06:11:18.863Z,96767.97
2023-02-22T06:13:52.311Z,96775.38
2023-02-22T06:16:20.838Z,96775.53
2023-02-22T06:18:48.548Z,96773.84
2023-02-22T06:21:16.474Z,96779.63
2023-02-22T06:23:43.778Z,96773.22
2023-02-22T06:26:11.391Z,96773.22
2023-02-22T06:28:38.042Z,96782.88
2023-02-22T06:31:04.761Z,96778.41
2023-02-22T06:33:31.439Z,96785.38
2023-02-22T06:35:58.073Z,96784.09
2023-02-22T06:38:25.075Z,96789.25
2023-02-22T06:40:51.915Z,96793.53
2023-02-22T06:43:19.542Z,96788.22
2023-02-22T06:45:47.160Z,96786.59
2023-02-22T06:48:14.730Z,96793.06
2023-02-22T06:50:42.309Z,96798.91
2023-02-22T06:53:09.922Z,96795.09
2023-02-22T06:55:37.062Z,96797.31
2023-02-22T06:58:03.992Z,96796.28
2023-02-22T07:00:31.072Z,96798.38
2023-02-22T07:02:58.302Z,96803.84
2023-02-22T07:05:25.690Z,96804.69
2023-02-22T07:07:53.574Z,96792.59
2023-02-22T07:10:27.097Z,96797.41
2023-02-22T07:12:54.700Z,96797.84
2023-02-22T07:15:23.294Z,96803.25
2023-02-22T07:17:50.673Z,96803.59
2023-02-22T07:20:18.484Z,96805.88
2023-02-22T07:22:46.054Z,96804.78
2023-02-22T07:25:12.667Z,96813.50
2023-02-22T07:27:39.649Z,96812.97
2023-02-22T07:30:06.930Z,96810.38
2023-02-22T07:32:33.719Z,96814.38
2023-02-22T07:35:00.460Z,96819.63
2023-02-22T07:37:27.651Z,96813.63
2023-02-22T07:39:55.248Z,96820.50
2023-02-22T07:42:21.946Z,96818.69
2023-02-22T07:44:50.768Z,96822.56
2023-02-22T07:47:17.430Z,96818.78
2023-02-22T07:49:44.118Z,96815.81
2023-02-22T07:52:11.300Z,96814.53
2023-02-22T07:54:37.969Z,96814.72
2023-02-22T07:57:04.668Z,96821.75
2023-02-22T07:59:31.337Z,96815.44
2023-02-22T08:01:57.963Z,96821.94
2023-02-22T08:04:24.733Z,96822.78
2023-02-22T08:06:51.473Z,96821.63
2023-02-22T08:09:18.186Z,96816.47
2023-02-22T08:11:44.831Z,96814.47
2023-02-22T08:14:11.522Z,96810.81
2023-02-22T08:16:38.219Z,96814.28
2023-02-22T08:19:04.919Z,96811.13
2023-02-22T08:21:31.560Z,96814.25
2023-02-22T08:23:58.203Z,96812.22
2023-02-22T08:26:24.902Z,96814.03
2023-02-22T08:28:51.594Z,96813.22
2023-02-22T08:31:18.702Z,96815.75
2023-02-22T08:33:48.049Z,96818.41
2023-02-22T08:36:14.729Z,96818.72
2023-02-22T08:38:41.533Z,96820.28
2023-02-22T08:41:08.190Z,96816.13
2023-02-22T08:43:34.882Z,96828.09
2023-02-22T08:46:01.554Z,96826.41
2023-02-22T08:48:28.272Z,96826.66
2023-02-22T08:50:54.956Z,96832.63
2023-02-22T08:53:21.627Z,96816.13
2023-02-22T08:55:48.279Z,96827.16
2023-02-22T08:58:14.927Z,96827.22
2023-02-22T09:00:41.797Z,96828.28
2023-02-22T09:03:10.128Z,96826.59
2023-02-22T09:05:36.886Z,96823.03
2023-02-22T09:08:03.645Z,96822.66
2023-02-22T09:10:31.621Z,96820.44
2023-02-22T09:12:58.420Z,96816.59
2023-02-22T09:15:25.169Z,96813.13
2023-02-22T09:17:52.304Z,96815.84
2023-02-22T09:20:19.727Z,96805.91
2023-02-22T09:22:46.445Z,96807.53
2023-02-22T09:25:16.942Z,96804.47
2023-02-22T09:27:44.290Z,96810.78
2023-02-22T09:30:19.410Z,96798.41
2023-02-22T09:32:46.307Z,96798.97
2023-02-22T09:35:13.091Z,96806.69
2023-02-22T09:37:39.749Z,96808.50
2023-02-22T09:40:06.963Z,96802.84
2023-02-22T09:42:35.208Z,96812.56
2023-02-22T09:45:20.340Z,96809.53
2023-02-22T09:47:56.969Z,96818.38
2023-02-22T09:50:26.262Z,96807.56
2023-02-22T09:53:07.200Z,96805.91
2023-02-22T09:55:37.818Z,96806.31
2023-02-22T09:58:27.376Z,96806.91
2023-02-22T10:00:58.441Z,96811.59
2023-02-22T10:03:36.675Z,96811.94
2023-02-22T10:06:10.765Z,96809.38
2023-02-22T10:08:37.429Z,96809.38
2023-02-22T10:11:41.294Z,96804.16
2023-02-22T10:14:20.022Z,96815.50
2023-02-22T10:17:10.574Z,96809.19
2023-02-22T10:19:49.359Z,96813.16
2023-02-22T10:22:32.289Z,96802.81
2023-02-22T10:25:22.017Z,96796.38
2023-02-22T10:28:04.021Z,96793.19
2023-02-22T10:30:35.766Z,96790.44
2023-02-22T10:33:08.760Z,96786.91
2023-02-22T10:35:36.062Z,96795.66
2023-02-22T10:38:20.236Z,96787.59
2023-02-22T10:40:50.722Z,96784.28
2023-02-22T10:43:17.390Z,96792.81
2023-02-22T10:45:44.074Z,96789.72
2023-02-22T10:48:15.187Z,96788.22
2023-02-22T10:50:42.679Z,96786.97
2023-02-22T10:53:09.520Z,96781.13
2023-02-22T10:55:36.372Z,96780.44
2023-02-22T10:58:06.866Z,96776.78
2023-02-22T11:00:35.079Z,96776.00
2023-02-22T11:03:03.415Z,96777.09
2023-02-22T11:05:37.075Z,96777.88
2023-02-22T11:08:18.996Z,96780.16
2023-02-22T11:10:45.639Z,96771.25
2023-02-22T11:13:28.468Z,96781.00
2023-02-22T11:15:55.999Z,96777.06
2023-02-22T11:18:30.240Z,96771.41
2023-02-22T11:21:10.074Z,96778.28
2023-02-22T11:23:37.133Z,96768.72
2023-02-22T11:26:10.811Z,96766.44
2023-02-22T11:28:37.519Z,96762.25
2023-02-22T11:31:30.226Z,96757.91
2023-02-22T11:33:58.192Z,96757.28
2023-02-22T11:36:39.088Z,96750.41
2023-02-22T11:39:06.735Z,96749.91
2023-02-22T11:41:33.774Z,96745.00
2023-02-22T11:44:20.715Z,96751.22
2023-02-22T11:46:47.370Z,96737.16
2023-02-22T11:49:14.047Z,96739.72
2023-02-22T11:52:05.865Z,96738.25
2023-02-22T11:54:41.346Z,96739.03
2023-02-22T11:57:14.422Z,96741.72
2023-02-22T11:59:53.014Z,96733.81
2023-02-22T12:02:25.303Z,96732.97
2023-02-22T12:05:07.496Z,96731.06
2023-02-22T12:07:43.091Z,96718.41
2023-02-22T12:10:27.874Z,96723.16
2023-02-22T12:13:10.772Z,96727.59
2023-02-22T12:15:49.555Z,96724.25
2023-02-22T12:18:19.513Z,96716.00
2023-02-22T12:20:56.713Z,96717.50
2023-02-22T12:23:31.826Z,96717.28
2023-02-22T12:26:25.336Z,96722.66
2023-02-22T12:28:57.744Z,96721.00
2023-02-22T12:31:36.455Z,96718.41
2023-02-22T12:34:23.253Z,96720.88
2023-02-22T12:36:53.011Z,96719.84
2023-02-22T12:39:53.504Z,96725.03
2023-02-22T12:42:47.434Z,96719.50
2023-02-22T12:45:22.603Z,96721.78
2023-02-22T12:48:03.846Z,96722.22
2023-02-22T12:50:30.499Z,96720.75
2023-02-22T12:53:33.407Z,96716.53
2023-02-22T12:56:22.448Z,96713.81
2023-02-22T12:59:09.268Z,96718.81
2023-02-22T13:01:38.723Z,96721.28
2023-02-22T13:04:19.461Z,96714.06
2023-02-22T13:06:54.940Z,96713.03
2023-02-22T13:09:24.747Z,96708.88
2023-02-22T13:12:34.295Z,96718.19
2023-02-22T13:15:21.687Z,96712.41
2023-02-22T13:18:21.054Z,96714.06
2023-02-22T13:20:59.020Z,96721.84
2023-02-22T13:23:48.913Z,96710.88
2023-02-22T13:26:21.704Z,96713.38
2023-02-22T13:28:58.761Z,96715.03
2023-02-22T13:31:33.870Z,96716.69
2023-02-22T13:34:20.720Z,96713.81
2023-02-22T13:37:16.081Z,96714.66
2023-02-22T13:40:04.374Z,96710.44
2023-02-22T13:42:40.934Z,96712.03
2023-02-22T13:45:46.830Z,96713.22
2023-02-22T13:48:35.295Z,96708.16
2023-02-22T13:51:18.062Z,96713.13
2023-02-22T13:54:19.014Z,96708.50
2023-02-22T13:56:46.182Z,96714.88
2023-02-22T13:59:36.472Z,96718.63
2023-02-22T14:02:04.331Z,96709.84
2023-02-22T14:04:30.867Z,96722.19
2023-02-22T14:07:04.922Z,96723.47
2023-02-22T14:09:56.908Z,96715.44
2023-02-22T14:12:29.601Z,96719.78
2023-02-22T14:15:28.348Z,96714.91
2023-02-22T14:17:59.965Z,96714.56
2023-02-22T14:20:36.571Z,96714.31
2023-02-22T14:23:37.339Z,96713.63
2023-02-22T14:26:25.577Z,96709.13
2023-02-22T14:29:02.371Z,96716.69
2023-02-22T14:31:36.640Z,96719.31
2023-02-22T14:34:05.190Z,96707.66
2023-02-22T14:36:47.315Z,96706.09
2023-02-22T14:39:28.002Z,96708.47
2023-02-22T14:42:00.299Z,96706.56
2023-02-22T14:45:11.041Z,96712.94
2023-02-22T14:48:16.965Z,96704.78
2023-02-22T14:51:08.852Z,96707.84
2023-02-22T14:54:06.159Z,96705.34
2023-02-22T14:56:44.319Z,96703.00
2023-02-22T14:59:19.203Z,96705.25
2023-02-22T15:01:53.155Z,96710.13
2023-02-22T15:04:29.746Z,96707.66
2023-02-22T15:06:58.166Z,96707.66
2023-02-22T15:09:31.785Z,96706.63
2023-02-22T15:12:02.549Z,96705.63
2023-02-22T15:14:29.867Z,96707.16
2023-02-22T15:16:58.481Z,96703.66
2023-02-22T15:19:29.439Z,96702.63
2023-02-22T15:21:56.832Z,96700.06
2023-02-22T15:24:36.690Z,96706.41
2023-02-22T15:27:06.001Z,96700.78
2023-02-22T15:29:37.530Z,96700.97
2023-02-22T15:32:20.614Z,96703.31
2023-02-22T15:34:47.332Z,96709.66
2023-02-22T15:37:21.779Z,96707.22
2023-02-22T15:39:48.610Z,96695.13
2023-02-22T15:42:16.253Z,96702.00
2023-02-22T15:44:43.011Z,96698.38
2023-02-22T15:47:12.424Z,96698.72
2023-02-22T15:49:39.102Z,96699.78
2023-02-22T15:52:10.082Z,96707.69
2023-02-22T15:54:38.675Z,96715.69
2023-02-22T15:57:05.323Z,96708.03
2023-02-22T15:59:31.981Z,96711.94
2023-02-22T16:01:58.672Z,96705.09
2023-02-22T16:04:27.846Z,96703.13
2023-02-22T16:07:06.301Z,96704.97
2023-02-22T16:09:32.975Z,96699.91
2023-02-22T16:12:21.369Z,96707.28
2023-02-22T16:14:48.100Z,96712.59
2023-02-22T16:17:25.691Z,96707.25
2023-02-22T16:19:53.217Z,96698.88
2023-02-22T16:22:46.939Z,96700.53
2023-02-22T16:25:19.790Z,96695.56
2023-02-22T16:27:59.935Z,96704.25
2023-02-22T16:30:37.246Z,96692.31
2023-02-22T16:33:04.947Z,96698.47
2023-02-22T16:35:31.636Z,96699.31
2023-02-22T16:38:03.020Z,96693.75
2023-02-22T16:40:34.996Z,96686.06
2023-02-22T16:43:02.979Z,96694.53
2023-02-22T16:45:29.748Z,96697.91
2023-02-22T16:47:56.522Z,96694.63
2023-02-22T16:50:23.194Z,96694.63
2023-02-22T16:52:49.954Z,96690.44
2023-02-22T16:55:18.955Z,96681.88
2023-02-22T16:57:47.545Z,96692.88
2023-02-22T17:00:16.135Z,96693.00
2023-02-22T17:02:43.747Z,96695.78
2023-02-22T17:05:15.139Z,96691.22
2023-02-22T17:07:44.958Z,96680.72
2023-02-22T17:10:15.999Z,96682.84
2023-02-22T17:12:46.162Z,96682.84
2023-02-22T17:15:32.915Z,96686.16
2023-02-22T17:18:00.414Z,96683.88
2023-02-22T17:20:27.442Z,96688.19
2023-02-22T17:22:54.100Z,96685.69
2023-02-22T17:25:23.224Z,96680.22
2023-02-22T17:27:50.812Z,96692.25
2023-02-22T17:30:18.441Z,96691.22
2023-02-22T17:32:45.350Z,96688.56
2023-02-22T17:35:13.615Z,96693.06
2023-02-22T17:37:42.804Z,96711.59
2023-02-22T17:40:12.390Z,96707.91
2023-02-22T17:42:39.461Z,96706.25
2023-02-22T17:45:07.042Z,96710.63
2023-02-22T17:47:34.635Z,96705.84
2023-02-22T17:50:02.252Z,96711.31
2023-02-22T17:52:29.869Z,96716.66
2023-02-22T17:54:56.621Z,96724.97
2023-02-22T17:57:24.041Z,96728.47
2023-02-22T17:59:51.633Z,96725.81
2023-02-22T18:02:20.331Z,96727.63
2023-02-22T18:04:47.821Z,96725.44
2023-02-22T18:07:15.427Z,96720.44
2023-02-22T18:09:43.083Z,96721.28
2023-02-22T18:12:10.619Z,96721.28
2023-02-22T18:14:38.218Z,96713.25
2023-02-22T18:17:05.825Z,96717.78
2023-02-22T18:19:33.406Z,96722.75
2023-02-22T18:22:01.030Z,96720.59
2023-02-22T18:24:28.752Z,96708.69
2023-02-22T18:26:57.229Z,96713.81
2023-02-22T18:29:24.820Z,96717.00
2023-02-22T18:31:55.228Z,96711.47
2023-02-22T18:34:23.022Z,96706.13
2023-02-22T18:36:50.606Z,96708.47
2023-02-22T18:39:17.277Z,96711.78
2023-02-22T18:41:43.954Z,96698.06
2023-02-22T18:44:10.722Z,96703.94
2023-02-22T18:46:38.012Z,96700.44
2023-02-22T18:49:05.589Z,96695.63
2023-02-22T18:51:33.158Z,96699.13
2023-02-22T18:54:00.966Z,96698.78
2023-02-22T18:56:39.334Z,96696.94
2023-02-22T18:59:09.173Z,96701.59
2023-02-22T19:01:36.809Z,96698.28
2023-02-22T19:04:04.405Z,96696.81
2023-02-22T19:06:31.960Z,96704.34
2023-02-22T19:09:01.610Z,96698.88
2023-02-22T19:11:29.199Z,96693.00
2023-02-22T19:13:57.554Z,96695.72
2023-02-22T19:16:25.190Z,96689.38
2023-02-22T19:18:52.630Z,96696.34
2023-02-22T19:21:20.069Z,96690.00
2023-02-22T19:23:47.162Z,96681.66
2023-02-22T19:26:19.215Z,96690.69
2023-02-22T19:28:47.386Z,96691.88
2023-02-22T19:31:18.742Z,96689.03
2023-02-22T19:33:45.873Z,96691.56
2023-02-22T19:36:12.825Z,96694.53
2023-02-22T19:38:39.517Z,96702.09
2023-02-22T19:41:11.415Z,96695.31
2023-02-22T19:43:39.017Z,96700.53
2023-02-22T19:46:06.637Z,96697.56
2023-02-22T19:48:34.179Z,96701.13
2023-02-22T19:51:08.831Z,96689.56
2023-02-22T19:53:36.414Z,96702.25
2023-02-22T19:56:11.082Z,96691.72
2023-02-22T19:58:39.679Z,96705.75
2023-02-22T20:01:22.387Z,96703.06
2023-02-22T20:03:51.033Z,96696.56
2023-02-22T20:06:18.522Z,96699.88
2023-02-22T20:08:45.226Z,96698.88
2023-02-22T20:11:11.887Z,96704.22
2023-02-22T20:13:39.041Z,96699.88
2023-02-22T20:16:05.934Z,96700.72
2023-02-22T20:18:32.590Z,96709.44
2023-02-22T20:20:59.234Z,96703.06
2023-02-22T20:23:25.880Z,96706.41
2023-02-22T20:25:55.747Z,96703.22
2023-02-22T20:28:23.102Z,96703.38
2023-02-22T20:30:50.081Z,96707.25
2023-02-22T20:33:17.632Z,96712.09
2023-02-22T20:35:44.398Z,96702.91
2023-02-22T20:38:11.522Z,96693.47
2023-02-22T20:40:38.318Z,96691.66
2023-02-22T20:43:27.276Z,96697.47
2023-02-22T20:45:52.365Z,96690.28
2023-02-22T20:48:19.047Z,96696.00
2023-02-22T20:50:45.825Z,96696.78
2023-02-22T20:53:13.419Z,96687.16
2023-02-22T20:55:50.863Z,96693.09
2023-02-22T20:58:19.650Z,96690.13
2023-02-22T21:00:47.328Z,96694.81
2023-02-22T21:03:14.836Z,96690.00
2023-02-22T21:05:45.765Z,96694.50
2023-02-22T21:08:14.099Z,96697.69
2023-02-22T21:10:42.658Z,96690.22
2023-02-22T21:13:11.634Z,96686.53
2023-02-22T21:15:39.875Z,96694.22
2023-02-22T21:18:07.695Z,96691.50
2023-02-22T21:20:36.543Z,96690.56
2023-02-22T21:23:04.254Z,96693.72
2023-02-22T21:25:30.980Z,96685.41
2023-02-22T21:27:58.261Z,96701.41
2023-02-22T21:30:25.703Z,96698.06
2023-02-22T21:32:53.065Z,96693.88
2023-02-22T21:35:23.520Z,96690.03
2023-02-22T21:37:50.370Z,96689.72
2023-02-22T21:40:17.065Z,96690.69
2023-02-22T21:42:43.710Z,96687.34
2023-02-22T21:45:10.540Z,96691.50
2023-02-22T21:47:37.201Z,96694.81
2023-02-22T21:50:04.454Z,96700.84
2023-02-22T21:52:31.203Z,96693.97
2023-02-22T21:54:57.876Z,96696.16
2023-02-22T21:57:24.534Z,96687.13
2023-02-22T21:59:51.199Z,96682.28
2023-02-22T22:02:17.881Z,96691.31
2023-02-22T22:04:44.540Z,96684.28
2023-02-22T22:07:11.199Z,96686.94
2023-02-22T22:09:38.867Z,96685.59
2023-02-22T22:12:05.687Z,96681.31
2023-02-22T22:14:32.446Z,96678.75
2023-02-22T22:16:59.400Z,96687.50
2023-02-22T22:19:26.931Z,96690.16
2023-02-22T22:21:53.612Z,96687.63
2023-02-22T22:24:20.721Z,96683.81
2023-02-22T22:26:51.030Z,96680.44
2023-02-22T22:29:18.137Z,96680.94
2023-02-22T22:31:45.744Z,96682.91
2023-02-22T22:34:12.528Z,96678.91
2023-02-22T22:36:39.263Z,96682.06
2023-02-22T22:39:05.900Z,96673.22
2023-02-22T22:41:32.662Z,96672.38
2023-02-22T22:43:59.316Z,96671.88
2023-02-22T22:46:26.034Z,96668.19
2023-02-22T22:48:52.726Z,96667.69
2023-02-22T22:51:20.220Z,96661.88
2023-02-22T22:53:47.731Z,96662.03
2023-02-22T22:56:19.451Z,96664.19
2023-02-22T22:58:53.514Z,96657.66
2023-02-22T23:01:22.246Z,96657.19
2023-02-22T23:03:49.468Z,96665.22
2023-02-22T23:06:16.236Z,96666.03
2023-02-22T23:08:42.919Z,96666.69
2023-02-22T23:11:10.445Z,96663.88
2023-02-22T23:13:37.762Z,96665.81
2023-02-22T23:16:07.429Z,96657.78
2023-02-22T23:18:34.375Z,96657.22
2023-02-22T23:21:01.016Z,96666.03
2023-02-22T23:23:27.702Z,96659.34
2023-02-22T23:26:09.933Z,96657.66
2023-02-22T23:28:36.730Z,96660.16
2023-02-22T23:31:15.820Z,96658.97
2023-02-22T23:33:43.832Z,96661.69
2023-02-22T23:36:11.060Z,96652.94
2023-02-22T23:38:38.482Z,96654.78
2023-02-22T23:41:05.910Z,96657.84
2023-02-22T23:43:32.564Z,96647.72
2023-02-22T23:46:03.557Z,96655.19
2023-02-22T23:48:30.245Z,96656.00
2023-02-22T23:50:56.930Z,96649.66
2023-02-22T23:53:23.603Z,96644.00
2023-02-22T23:55:50.287Z,96639.13
2023-02-22T23:58:16.957Z,96649.44
